Time;durP1;ratioP1;P1;durP2;ratioP2;P2;SDS_P1;SDS_P2;PMS_P1;PMS_P2;Temp;Humidity;BMP_temperature;BMP_pressure;BME280_temperature;BME280_humidity;BME280_pressure;Samples;Min_cycle;Max_cycle;Signal;HPM_P1;HPM_P2
2022/10/08 00:01:30;;;;;;;0.50;0.40;;;12.00;99.90;;;;;;5071950;28;20459;-78
2022/10/08 00:03:57;;;;;;;6.73;1.17;;;12.00;99.90;;;;;;5072800;28;20472;-77
2022/10/08 00:06:25;;;;;;;4.30;0.60;;;12.00;99.90;;;;;;5072701;28;20817;-78
2022/10/08 00:08:53;;;;;;;0.50;0.40;;;12.00;99.90;;;;;;5073383;28;20198;-78
2022/10/08 00:11:22;;;;;;;0.83;0.70;;;12.00;99.90;;;;;;5072915;28;20472;-77
2022/10/08 00:13:51;;;;;;;1.27;0.97;;;12.00;99.90;;;;;;5073324;28;20504;-77
2022/10/08 00:16:21;;;;;;;1.53;0.77;;;12.00;99.90;;;;;;5073000;28;20553;-77
2022/10/08 00:18:50;;;;;;;0.83;0.83;;;12.00;99.90;;;;;;5073265;28;20435;-78
2022/10/08 00:21:20;;;;;;;3.80;0.97;;;12.00;99.90;;;;;;5073593;28;20543;-78
2022/10/08 00:23:48;;;;;;;1.47;0.73;;;11.90;99.90;;;;;;5073021;28;20490;-77
2022/10/08 00:26:16;;;;;;;0.50;0.40;;;11.90;99.90;;;;;;5073344;28;20523;-78
2022/10/08 00:28:45;;;;;;;1.73;1.63;;;11.90;99.90;;;;;;5073181;28;20956;-78
2022/10/08 00:31:15;;;;;;;0.50;0.40;;;11.90;99.90;;;;;;5076583;28;20456;-79
2022/10/08 00:33:42;;;;;;;6.53;1.67;;;11.90;99.90;;;;;;5078629;28;20460;-78
2022/10/08 00:36:11;;;;;;;0.50;0.50;;;11.80;99.90;;;;;;5074417;28;20472;-78
2022/10/08 00:38:39;;;;;;;0.70;0.70;;;11.80;99.90;;;;;;5071869;28;20904;-77
2022/10/08 00:41:08;;;;;;;0.50;0.40;;;11.70;99.90;;;;;;5071933;28;20552;-78
2022/10/08 00:43:38;;;;;;;0.57;0.53;;;11.70;99.90;;;;;;5071237;28;20885;-77
2022/10/08 00:46:06;;;;;;;0.50;0.40;;;11.70;99.90;;;;;;5071913;28;20431;-78
2022/10/08 00:48:35;;;;;;;9.13;0.63;;;11.70;99.90;;;;;;5071692;28;20196;-78
2022/10/08 00:51:02;;;;;;;0.80;0.70;;;11.70;99.90;;;;;;5072445;28;20825;-78
2022/10/08 00:53:30;;;;;;;2.00;1.27;;;11.70;99.90;;;;;;5072157;28;20429;-75
2022/10/08 00:55:57;;;;;;;0.55;0.43;;;11.70;99.90;;;;;;5071699;28;20205;-78
2022/10/08 00:58:26;;;;;;;0.98;0.98;;;11.60;99.90;;;;;;5071896;28;20189;-78
2022/10/08 01:00:53;;;;;;;11.53;1.10;;;11.70;99.90;;;;;;5071215;28;20799;-78
2022/10/08 01:03:20;;;;;;;1.33;0.85;;;11.60;99.90;;;;;;5072034;28;20588;-78
2022/10/08 01:05:58;;;;;;;0.50;0.50;;;11.60;99.90;;;;;;5071986;28;20284;-77
2022/10/08 01:08:33;;;;;;;1.00;0.90;;;11.60;99.90;;;;;;5071738;28;20300;-77
2022/10/08 01:11:11;;;;;;;6.83;4.33;;;11.50;99.90;;;;;;5072054;28;20470;-78
2022/10/08 01:13:49;;;;;;;5.72;2.25;;;11.50;99.90;;;;;;5071552;28;20747;-77
2022/10/08 01:16:24;;;;;;;0.70;0.70;;;11.50;99.90;;;;;;5072057;28;20632;-78
2022/10/08 01:18:59;;;;;;;0.60;0.40;;;11.50;99.90;;;;;;5071611;28;21005;-77
2022/10/08 01:21:37;;;;;;;1.92;1.75;;;11.50;99.90;;;;;;5071809;28;20255;-75
2022/10/08 01:25:31;;;;;;;0.50;0.40;;;11.50;99.90;;;;;;5071331;28;20706;-78
2022/10/08 01:27:24;;;;;;;0.82;0.75;;;11.40;99.90;;;;;;5071390;28;20194;-79
2022/10/08 01:29:53;;;;;;;1.23;0.80;;;11.40;99.90;;;;;;5071711;28;20745;-78
2022/10/08 01:32:25;;;;;;;0.60;0.50;;;11.40;99.90;;;;;;5071124;28;20659;-78
2022/10/08 01:34:55;;;;;;;0.50;0.40;;;11.40;99.90;;;;;;5071545;28;20421;-78
2022/10/08 01:37:27;;;;;;;1.00;0.90;;;11.40;99.90;;;;;;5071789;28;20435;-78
2022/10/08 01:39:58;;;;;;;0.98;0.88;;;11.50;99.90;;;;;;5071735;28;20271;-78
2022/10/08 01:42:30;;;;;;;1.35;1.25;;;11.40;99.90;;;;;;5071699;28;20210;-78
2022/10/08 01:45:02;;;;;;;1.13;0.73;;;11.40;99.90;;;;;;5070825;28;20201;-78
2022/10/08 01:47:30;;;;;;;0.75;0.73;;;11.50;99.90;;;;;;5072027;28;20280;-78
2022/10/08 01:50:02;;;;;;;3.53;2.35;;;11.50;99.90;;;;;;5072023;28;20217;-77
2022/10/08 01:52:35;;;;;;;1.08;0.60;;;11.50;99.90;;;;;;5072934;28;20243;-78
2022/10/08 01:55:08;;;;;;;0.80;0.80;;;11.50;99.90;;;;;;5072464;28;20679;-77
2022/10/08 01:57:37;;;;;;;0.83;0.83;;;11.60;99.90;;;;;;5073123;28;20273;-76
2022/10/08 02:00:07;;;;;;;0.50;0.47;;;11.60;99.90;;;;;;5072016;28;20479;-78
2022/10/08 02:02:34;;;;;;;5.50;1.27;;;11.50;99.90;;;;;;5072669;28;20194;-78
2022/10/08 02:05:01;;;;;;;0.70;0.60;;;11.50;99.90;;;;;;5072086;28;21032;-78
2022/10/08 02:07:30;;;;;;;0.50;0.40;;;11.60;99.90;;;;;;5073075;28;20197;-78
2022/10/08 02:10:04;;;;;;;4.43;2.00;;;11.50;99.90;;;;;;5072666;28;20222;-77
2022/10/08 02:12:31;;;;;;;0.50;0.40;;;11.60;99.90;;;;;;5073750;28;20530;-78
2022/10/08 02:15:03;;;;;;;8.43;1.73;;;11.60;99.90;;;;;;5075768;28;20281;-78
2022/10/08 02:17:36;;;;;;;1.40;1.02;;;11.70;99.90;;;;;;5075808;28;20496;-78
2022/10/08 02:20:11;;;;;;;3.90;3.13;;;11.70;99.90;;;;;;5075598;28;20703;-78
2022/10/08 02:22:44;;;;;;;5.00;1.07;;;11.80;99.90;;;;;;5076921;28;20428;-78
2022/10/08 02:25:16;;;;;;;2.25;1.40;;;11.80;99.90;;;;;;5077880;28;20445;-78
2022/10/08 02:27:54;;;;;;;0.90;0.83;;;11.90;99.90;;;;;;5079136;28;20228;-78
2022/10/08 02:30:23;;;;;;;8.43;1.63;;;11.90;99.90;;;;;;5077155;28;20852;-77
2022/10/08 02:32:57;;;;;;;5.70;0.60;;;11.90;99.90;;;;;;5074364;28;20442;-77
2022/10/08 02:35:30;;;;;;;1.10;1.00;;;11.90;99.90;;;;;;5074017;28;20906;-78
2022/10/08 02:38:04;;;;;;;0.60;0.50;;;11.90;99.90;;;;;;5074610;28;20459;-78
2022/10/08 02:40:32;;;;;;;0.50;0.40;;;11.90;99.90;;;;;;5074237;28;20213;-78
2022/10/08 02:43:05;;;;;;;0.50;0.50;;;12.00;99.90;;;;;;5073577;28;20438;-76
2022/10/08 02:45:40;;;;;;;2.25;1.13;;;12.00;99.90;;;;;;5073628;28;20443;-74
2022/10/08 02:48:14;;;;;;;3.30;1.05;;;12.00;99.90;;;;;;5075245;28;20285;-78
2022/10/08 02:50:44;;;;;;;1.47;1.37;;;12.10;99.90;;;;;;5074594;28;20228;-77
2022/10/08 02:53:13;;;;;;;1.08;0.60;;;12.10;99.90;;;;;;5075115;28;20515;-78
2022/10/08 02:55:47;;;;;;;0.50;0.40;;;12.10;99.90;;;;;;5074694;28;20198;-78
2022/10/08 02:58:14;;;;;;;0.60;0.50;;;12.20;99.90;;;;;;5074977;28;20447;-78
2022/10/08 03:00:49;;;;;;;0.80;0.80;;;12.20;99.90;;;;;;5074674;28;20904;-78
2022/10/08 03:03:22;;;;;;;1.30;1.20;;;12.20;99.90;;;;;;5075689;28;20292;-78
2022/10/08 03:05:51;;;;;;;0.60;0.40;;;12.20;99.90;;;;;;5074769;28;20270;-77
2022/10/08 03:08:20;;;;;;;1.97;0.87;;;12.10;99.90;;;;;;5075122;28;20201;-78
2022/10/08 03:10:47;;;;;;;0.50;0.40;;;12.00;99.90;;;;;;5074888;28;20543;-78
2022/10/08 03:13:15;;;;;;;0.80;0.50;;;11.90;99.90;;;;;;5074887;28;20197;-76
2022/10/08 03:15:43;;;;;;;0.60;0.60;;;11.90;99.90;;;;;;5074406;28;20240;-78
2022/10/08 03:18:12;;;;;;;0.50;0.40;;;11.80;99.90;;;;;;5074797;28;20440;-78
2022/10/08 03:20:43;;;;;;;0.60;0.50;;;11.70;99.90;;;;;;5073717;28;20228;-78
2022/10/08 03:23:11;;;;;;;0.50;0.40;;;11.60;99.90;;;;;;5074045;28;20464;-78
2022/10/08 03:25:38;;;;;;;0.73;0.73;;;11.50;99.90;;;;;;5073423;28;20232;-78
2022/10/08 03:28:05;;;;;;;0.50;0.40;;;11.50;99.90;;;;;;5074187;28;20537;-78
2022/10/08 03:30:32;;;;;;;0.50;0.40;;;11.40;99.90;;;;;;5074599;28;20464;-78
2022/10/08 03:33:00;;;;;;;0.50;0.40;;;11.40;99.90;;;;;;5074317;28;20631;-77
2022/10/08 03:35:27;;;;;;;0.50;0.40;;;11.40;99.90;;;;;;5074467;28;20289;-78
2022/10/08 03:37:54;;;;;;;11.52;2.50;;;11.40;99.90;;;;;;5074573;28;20441;-77
2022/10/08 03:40:21;;;;;;;0.50;0.40;;;11.40;99.90;;;;;;5074530;28;20277;-77
2022/10/08 03:42:48;;;;;;;6.22;0.95;;;11.30;99.90;;;;;;5074551;28;20199;-77
2022/10/08 03:45:15;;;;;;;0.50;0.40;;;11.30;99.90;;;;;;5074344;28;20307;-78
2022/10/08 03:47:42;;;;;;;0.63;0.63;;;11.20;99.90;;;;;;5074566;28;20444;-78
2022/10/08 03:50:10;;;;;;;0.50;0.40;;;11.20;99.90;;;;;;5073952;28;20306;-78
2022/10/08 03:52:37;;;;;;;0.55;0.55;;;11.20;99.90;;;;;;5074957;28;20284;-77
2022/10/08 03:55:04;;;;;;;0.60;0.60;;;11.10;99.90;;;;;;5074062;28;20606;-78
2022/10/08 03:57:31;;;;;;;1.13;1.02;;;11.10;99.90;;;;;;5073884;28;20194;-78
2022/10/08 03:59:58;;;;;;;0.50;0.50;;;11.10;99.90;;;;;;5074224;28;20273;-78
2022/10/08 04:02:25;;;;;;;0.65;0.65;;;11.10;99.90;;;;;;5074464;28;20201;-79
2022/10/08 04:04:52;;;;;;;0.50;0.50;;;11.00;99.90;;;;;;5072822;28;20339;-78
2022/10/08 04:07:20;;;;;;;0.60;0.52;;;11.00;99.90;;;;;;5074659;28;20530;-78
2022/10/08 04:09:47;;;;;;;5.47;1.15;;;11.10;99.90;;;;;;5074259;28;20649;-78
2022/10/08 04:12:14;;;;;;;0.50;0.40;;;11.10;99.90;;;;;;5073511;28;20190;-78
2022/10/08 04:14:41;;;;;;;8.77;1.40;;;11.10;99.90;;;;;;5073410;28;20194;-78
2022/10/08 04:17:08;;;;;;;0.50;0.40;;;11.20;99.90;;;;;;5074216;28;20298;-78
2022/10/08 04:19:35;;;;;;;0.50;0.50;;;11.20;99.90;;;;;;5075146;28;20705;-78
2022/10/08 04:22:02;;;;;;;0.70;0.65;;;11.20;99.90;;;;;;5076435;28;20440;-78
2022/10/08 04:24:30;;;;;;;3.13;2.17;;;11.20;99.90;;;;;;5074031;28;20305;-78
2022/10/08 04:26:57;;;;;;;4.18;1.13;;;11.10;99.90;;;;;;5072108;28;20291;-79
2022/10/08 04:29:23;;;;;;;1.63;1.52;;;11.10;99.90;;;;;;5071683;28;20190;-76
2022/10/08 04:31:50;;;;;;;0.90;0.73;;;11.10;99.90;;;;;;5072160;28;20271;-77
2022/10/08 04:34:17;;;;;;;0.95;0.95;;;11.10;99.90;;;;;;5071829;28;20570;-78
2022/10/08 04:36:44;;;;;;;0.70;0.53;;;11.10;99.90;;;;;;5071230;28;20288;-78
2022/10/08 04:39:11;;;;;;;1.48;1.38;;;11.00;99.90;;;;;;5072474;28;20802;-78
2022/10/08 04:41:39;;;;;;;0.73;0.55;;;11.00;99.90;;;;;;5072733;28;20255;-76
2022/10/08 04:44:06;;;;;;;1.23;0.80;;;11.00;99.90;;;;;;5072368;28;20308;-77
2022/10/08 04:46:32;;;;;;;0.60;0.50;;;11.00;99.90;;;;;;5072418;28;20574;-78
2022/10/08 04:49:00;;;;;;;0.98;0.88;;;11.00;99.90;;;;;;5073158;28;20193;-78
2022/10/08 04:51:27;;;;;;;2.45;1.13;;;11.00;99.90;;;;;;5072322;28;20214;-74
2022/10/08 04:53:55;;;;;;;0.50;0.40;;;11.00;99.90;;;;;;5072077;28;20186;-75
2022/10/08 04:56:24;;;;;;;0.70;0.68;;;11.00;99.90;;;;;;5072942;28;20190;-78
2022/10/08 04:58:53;;;;;;;2.67;1.30;;;11.10;99.90;;;;;;5073052;28;20209;-78
2022/10/08 05:01:21;;;;;;;0.50;0.50;;;11.10;99.90;;;;;;5073562;28;20281;-78
2022/10/08 05:03:50;;;;;;;0.60;0.40;;;11.10;99.90;;;;;;5073759;28;20189;-78
2022/10/08 05:06:18;;;;;;;8.13;2.05;;;11.10;99.90;;;;;;5072439;28;20683;-77
2022/10/08 05:08:46;;;;;;;1.25;1.02;;;11.20;99.90;;;;;;5073924;28;20280;-78
2022/10/08 05:11:14;;;;;;;1.30;0.50;;;11.20;99.90;;;;;;5073539;28;20663;-78
2022/10/08 05:13:41;;;;;;;0.95;0.95;;;11.20;99.90;;;;;;5073308;28;20190;-78
2022/10/08 05:16:11;;;;;;;0.50;0.40;;;11.30;99.90;;;;;;5073361;28;20197;-79
2022/10/08 05:18:38;;;;;;;0.50;0.40;;;11.30;99.90;;;;;;5072404;28;21089;-74
2022/10/08 05:21:06;;;;;;;0.50;0.40;;;11.30;99.90;;;;;;5073599;28;20228;-77
2022/10/08 05:23:33;;;;;;;0.50;0.40;;;11.30;99.90;;;;;;5073364;28;20204;-78
2022/10/08 05:26:01;;;;;;;0.57;0.55;;;11.30;99.90;;;;;;5072667;28;20491;-78
2022/10/08 05:28:28;;;;;;;1.17;1.08;;;11.30;99.90;;;;;;5072847;28;20205;-78
2022/10/08 05:30:59;;;;;;;0.60;0.60;;;11.30;99.90;;;;;;5073732;28;20225;-78
2022/10/08 05:33:28;;;;;;;1.25;1.02;;;11.20;99.90;;;;;;5073000;28;20198;-78
2022/10/08 05:35:54;;;;;;;0.75;0.75;;;11.20;99.90;;;;;;5071981;28;20281;-78
2022/10/08 05:38:21;;;;;;;0.90;0.90;;;11.20;99.90;;;;;;5072917;28;20559;-78
2022/10/08 05:40:48;;;;;;;0.65;0.65;;;11.20;99.90;;;;;;5073153;28;20218;-78
2022/10/08 05:43:15;;;;;;;1.30;1.23;;;11.20;99.90;;;;;;5072709;28;20194;-77
2022/10/08 05:45:49;;;;;;;0.50;0.40;;;11.20;99.90;;;;;;5070973;28;20508;-77
2022/10/08 05:48:16;;;;;;;7.47;2.65;;;11.20;99.90;;;;;;5073477;28;20205;-78
2022/10/08 05:50:44;;;;;;;3.57;2.03;;;11.20;99.90;;;;;;5075154;28;20222;-78
2022/10/08 05:53:11;;;;;;;1.55;1.45;;;11.20;99.90;;;;;;5074612;28;20527;-78
2022/10/08 05:55:38;;;;;;;1.02;1.00;;;11.30;99.90;;;;;;5074372;28;20198;-77
2022/10/08 05:58:05;;;;;;;0.60;0.60;;;11.30;99.90;;;;;;5074855;28;20197;-78
2022/10/08 06:00:32;;;;;;;0.50;0.40;;;11.30;99.90;;;;;;5074853;28;20654;-75
2022/10/08 06:02:58;;;;;;;2.13;0.93;;;11.30;99.90;;;;;;5074161;28;20233;-77
2022/10/08 06:05:25;;;;;;;1.13;1.02;;;11.30;99.90;;;;;;5074585;28;20232;-77
2022/10/08 06:07:56;;;;;;;1.17;1.10;;;11.30;99.90;;;;;;5074788;28;20672;-78
2022/10/08 06:10:23;;;;;;;3.63;1.30;;;11.30;99.90;;;;;;5074517;28;20496;-78
2022/10/08 06:12:50;;;;;;;0.80;0.80;;;11.30;99.90;;;;;;5074282;28;20535;-77
2022/10/08 06:15:17;;;;;;;2.35;2.25;;;11.40;99.90;;;;;;5074899;28;20277;-77
2022/10/08 06:17:44;;;;;;;7.13;1.42;;;11.40;99.90;;;;;;5074938;28;20201;-77
2022/10/08 06:20:10;;;;;;;0.50;0.40;;;11.40;99.90;;;;;;5076672;28;20218;-77
2022/10/08 06:22:37;;;;;;;2.03;0.80;;;11.40;99.90;;;;;;5077333;28;20194;-78
2022/10/08 06:25:07;;;;;;;3.13;0.73;;;11.40;99.90;;;;;;5075291;28;20472;-78
2022/10/08 06:27:34;;;;;;;0.77;0.77;;;11.40;99.90;;;;;;5073811;28;20440;-78
2022/10/08 06:30:00;;;;;;;0.50;0.40;;;11.50;99.90;;;;;;5074300;28;20587;-77
2022/10/08 06:32:27;;;;;;;0.60;0.50;;;11.50;99.90;;;;;;5074431;28;20198;-77
2022/10/08 06:34:54;;;;;;;0.60;0.57;;;11.50;99.90;;;;;;5073398;28;20626;-77
2022/10/08 06:37:21;;;;;;;19.88;2.35;;;11.60;99.90;;;;;;5074022;28;20289;-78
2022/10/08 06:39:48;;;;;;;0.55;0.55;;;11.60;99.90;;;;;;5074344;28;20306;-77
2022/10/08 06:42:16;;;;;;;0.50;0.40;;;11.60;99.90;;;;;;5074252;28;20281;-77
2022/10/08 06:44:43;;;;;;;0.80;0.80;;;11.60;99.90;;;;;;5074226;28;20297;-77
2022/10/08 06:47:10;;;;;;;0.70;0.70;;;11.60;99.90;;;;;;5074327;28;20281;-77
2022/10/08 06:49:38;;;;;;;0.50;0.40;;;11.70;99.90;;;;;;5073979;28;20436;-78
2022/10/08 06:52:05;;;;;;;1.50;1.40;;;11.80;99.90;;;;;;5074865;28;20451;-78
2022/10/08 06:54:32;;;;;;;1.47;1.37;;;11.80;99.90;;;;;;5074075;28;20801;-74
2022/10/08 06:56:59;;;;;;;0.70;0.70;;;11.80;99.90;;;;;;5074770;28;20527;-78
2022/10/08 06:59:27;;;;;;;0.73;0.73;;;11.90;99.90;;;;;;5072712;28;20527;-75
2022/10/08 07:01:53;;;;;;;0.53;0.50;;;11.90;99.90;;;;;;5074114;28;20754;-77
2022/10/08 07:04:20;;;;;;;0.80;0.80;;;11.90;99.90;;;;;;5074464;28;20440;-77
2022/10/08 07:06:47;;;;;;;0.50;0.40;;;11.90;99.90;;;;;;5074997;28;20196;-78
2022/10/08 07:09:14;;;;;;;0.50;0.40;;;11.90;99.90;;;;;;5074449;28;21005;-77
2022/10/08 07:11:41;;;;;;;4.30;3.17;;;12.00;99.90;;;;;;5074697;28;20539;-77
2022/10/08 07:14:08;;;;;;;0.60;0.60;;;12.00;99.90;;;;;;5074163;28;20817;-78
2022/10/08 07:16:36;;;;;;;0.87;0.57;;;12.00;99.90;;;;;;5074315;28;20527;-75
2022/10/08 07:19:03;;;;;;;2.15;1.65;;;12.00;99.90;;;;;;5074011;28;20993;-77
2022/10/08 07:21:30;;;;;;;0.80;0.80;;;12.10;99.90;;;;;;5074140;28;20457;-76
2022/10/08 07:23:59;;;;;;;0.50;0.50;;;12.00;99.90;;;;;;5073884;28;20791;-77
2022/10/08 07:26:29;;;;;;;1.20;1.07;;;12.10;99.90;;;;;;5072984;28;20472;-78
2022/10/08 07:28:58;;;;;;;3.27;2.23;;;12.10;99.90;;;;;;5073304;28;20445;-78
2022/10/08 07:31:28;;;;;;;6.00;2.70;;;12.10;99.90;;;;;;5073472;28;20466;-78
2022/10/08 07:33:57;;;;;;;1.03;0.93;;;12.20;99.90;;;;;;5072843;28;20456;-77
2022/10/08 07:36:25;;;;;;;4.63;3.33;;;12.20;99.90;;;;;;5073363;28;20440;-77
2022/10/08 07:38:54;;;;;;;2.33;1.07;;;12.20;99.90;;;;;;5072898;28;20436;-77
2022/10/08 07:41:21;;;;;;;0.50;0.50;;;12.20;99.90;;;;;;5073189;28;20456;-77
2022/10/08 07:43:51;;;;;;;16.10;3.67;;;12.30;99.90;;;;;;5073008;28;20447;-77
2022/10/08 07:46:18;;;;;;;3.97;1.30;;;12.40;99.90;;;;;;5072306;28;20472;-78
2022/10/08 07:48:45;;;;;;;0.50;0.40;;;12.50;99.90;;;;;;5072613;28;21013;-77
2022/10/08 07:51:15;;;;;;;5.25;1.50;;;12.50;99.90;;;;;;5072000;28;20460;-75
2022/10/08 07:53:42;;;;;;;0.60;0.50;;;12.60;99.90;;;;;;5072575;28;20189;-77
2022/10/08 07:56:11;;;;;;;2.38;2.28;;;12.70;99.90;;;;;;5072225;28;20445;-77
2022/10/08 07:58:38;;;;;;;0.60;0.60;;;12.90;99.90;;;;;;5071928;28;20265;-73
2022/10/08 08:01:07;;;;;;;1.53;0.70;;;13.00;99.90;;;;;;5072703;28;20456;-77
2022/10/08 08:03:34;;;;;;;0.77;0.77;;;13.20;99.90;;;;;;5072034;28;20519;-77
2022/10/08 08:06:02;;;;;;;0.50;0.40;;;13.30;99.90;;;;;;5071931;28;20472;-77
2022/10/08 08:08:30;;;;;;;1.33;1.23;;;13.40;99.90;;;;;;5072041;28;20447;-77
2022/10/08 08:10:58;;;;;;;1.73;1.37;;;13.50;99.90;;;;;;5071924;28;20468;-77
2022/10/08 08:13:25;;;;;;;1.57;1.47;;;13.60;99.90;;;;;;5072169;28;20443;-77
2022/10/08 08:15:59;;;;;;;0.50;0.50;;;13.50;99.90;;;;;;5071628;28;20941;-76
2022/10/08 08:18:29;;;;;;;4.33;3.90;;;13.40;99.90;;;;;;5071915;28;20447;-77
2022/10/08 08:21:00;;;;;;;0.63;0.63;;;13.50;99.90;;;;;;5071893;28;20468;-77
2022/10/08 08:23:31;;;;;;;1.33;0.97;;;14.10;99.90;;;;;;5071869;28;20531;-77
2022/10/08 08:26:00;;;;;;;0.50;0.30;;;15.20;99.90;;;;;;5093420;22;20514;-77
2022/10/08 08:28:27;;;;;;;2.10;1.57;;;16.00;99.90;;;;;;5071635;28;20440;-76
2022/10/08 08:30:54;;;;;;;0.83;0.83;;;16.20;99.90;;;;;;5072100;28;20805;-77
2022/10/08 08:33:21;;;;;;;0.80;0.73;;;16.60;99.90;;;;;;5072142;28;20860;-77
2022/10/08 08:35:52;;;;;;;2.20;1.33;;;17.00;99.90;;;;;;5071559;28;21020;-77
2022/10/08 08:38:18;;;;;;;0.50;0.30;;;17.00;99.90;;;;;;5071790;28;20961;-77
2022/10/08 08:40:47;;;;;;;1.47;1.37;;;16.80;99.90;;;;;;5071802;28;20944;-77
2022/10/08 08:43:14;;;;;;;0.50;0.30;;;16.90;99.90;;;;;;5072111;28;20448;-77
2022/10/08 08:45:42;;;;;;;1.37;1.27;;;17.80;99.90;;;;;;5071698;28;20482;-77
2022/10/08 08:48:16;;;;;;;1.23;1.17;;;19.30;99.90;;;;;;5072036;28;20543;-77
2022/10/08 08:50:45;;;;;;;3.63;0.93;;;19.50;99.90;;;;;;5071533;28;20477;-78
2022/10/08 08:53:12;;;;;;;0.50;0.40;;;19.50;99.90;;;;;;5071500;28;20440;-77
2022/10/08 08:55:41;;;;;;;1.03;0.90;;;19.80;99.90;;;;;;5071025;28;20547;-77
2022/10/08 08:58:24;;;;;;;0.80;0.40;;;20.60;99.90;;;;;;5071949;28;20795;-77
2022/10/08 09:00:55;;;;;;;0.80;0.77;;;21.70;99.90;;;;;;5067446;28;20427;-77
2022/10/08 09:03:26;;;;;;;1.33;1.23;;;21.90;99.90;;;;;;5044516;28;20448;-79
2022/10/08 09:05:56;;;;;;;0.50;0.50;;;21.20;99.90;;;;;;5043098;28;20574;-81
2022/10/08 09:08:28;;;;;;;0.50;0.30;;;22.00;99.90;;;;;;5052415;28;20430;-79
2022/10/08 09:10:57;;;;;;;0.60;0.60;;;22.70;99.90;;;;;;5053653;28;20519;-78
2022/10/08 09:13:30;;;;;;;0.50;0.37;;;23.40;99.90;;;;;;5058967;28;20501;-80
2022/10/08 09:15:57;;;;;;;0.90;0.90;;;24.00;99.90;;;;;;5059027;28;20528;-79
2022/10/08 09:18:24;;;;;;;2.83;0.80;;;23.90;99.90;;;;;;5060115;28;20532;-78
2022/10/08 09:20:51;;;;;;;2.93;1.13;;;23.60;99.90;;;;;;5059256;28;20437;-77
2022/10/08 09:23:20;;;;;;;0.60;0.50;;;23.80;99.90;;;;;;5063509;28;20517;-79
2022/10/08 09:25:53;;;;;;;0.50;0.30;;;23.50;99.90;;;;;;5061981;28;20491;-79
2022/10/08 09:28:43;;;;;;;0.50;0.40;;;23.20;99.90;;;;;;5063314;28;20467;-80
2022/10/08 09:31:17;;;;;;;1.43;0.97;;;23.80;99.90;;;;;;5063849;28;20899;-79
2022/10/08 09:33:45;;;;;;;0.50;0.30;;;23.20;99.90;;;;;;5062842;28;20445;-77
2022/10/08 09:36:12;;;;;;;0.50;0.30;;;23.30;99.90;;;;;;5062685;28;20456;-80
2022/10/08 09:38:40;;;;;;;0.50;0.30;;;23.20;99.90;;;;;;5064000;28;20473;-79
2022/10/08 09:41:10;;;;;;;1.63;0.60;;;22.10;99.90;;;;;;5063732;28;20456;-79
2022/10/08 09:43:38;;;;;;;0.50;0.30;;;21.40;99.90;;;;;;5064330;28;20531;-78
2022/10/08 09:46:10;;;;;;;0.60;0.50;;;21.00;99.90;;;;;;5063166;28;20523;-79
2022/10/08 09:48:38;;;;;;;0.83;0.83;;;20.60;99.90;;;;;;5063789;28;20429;-79
2022/10/08 09:51:12;;;;;;;0.50;0.40;;;20.30;99.90;;;;;;5063640;28;20440;-79
2022/10/08 09:53:42;;;;;;;0.50;0.30;;;19.80;99.90;;;;;;5063986;28;20528;-79
2022/10/08 09:56:12;;;;;;;1.13;0.63;;;19.40;99.90;;;;;;5063059;28;20457;-79
2022/10/08 09:58:51;;;;;;;1.13;0.80;;;19.20;99.90;;;;;;5064389;28;20437;-79
2022/10/08 10:01:18;;;;;;;1.43;1.37;;;19.10;99.90;;;;;;5063143;28;20427;-78
2022/10/08 10:03:50;;;;;;;1.00;0.60;;;19.00;99.90;;;;;;5063160;28;20520;-78
2022/10/08 10:06:29;;;;;;;0.60;0.40;;;19.00;99.90;;;;;;5062857;28;20487;-79
2022/10/08 10:09:03;;;;;;;0.90;0.90;;;19.00;99.90;;;;;;5063230;28;20425;-79
2022/10/08 10:11:36;;;;;;;1.90;1.80;;;20.20;99.90;;;;;;5063757;28;20453;-79
2022/10/08 10:14:13;;;;;;;0.80;0.63;;;20.80;99.90;;;;;;5063260;28;20753;-79
2022/10/08 10:16:43;;;;;;;0.50;0.40;;;21.30;99.90;;;;;;5063087;28;20469;-79
2022/10/08 10:19:16;;;;;;;0.50;0.40;;;21.50;99.90;;;;;;5062763;28;20447;-80
2022/10/08 10:21:51;;;;;;;0.50;0.37;;;22.00;99.90;;;;;;5063469;28;20437;-78
2022/10/08 10:24:33;;;;;;;1.73;0.70;;;22.90;99.90;;;;;;5062761;28;20443;-78
2022/10/08 10:27:07;;;;;;;0.50;0.30;;;22.90;93.70;;;;;;5063058;28;20473;-78
2022/10/08 10:29:48;;;;;;;0.93;0.83;;;22.00;93.10;;;;;;5064489;28;20535;-79
2022/10/08 10:32:19;;;;;;;0.50;0.30;;;21.10;95.40;;;;;;5063427;28;20532;-79
2022/10/08 10:34:53;;;;;;;0.50;0.43;;;20.20;99.10;;;;;;5062663;28;20431;-79
2022/10/08 10:37:31;;;;;;;0.50;0.40;;;19.60;99.90;;;;;;5063408;28;20484;-79
2022/10/08 10:40:15;;;;;;;0.50;0.37;;;18.90;99.90;;;;;;5063518;28;20466;-79
2022/10/08 10:42:50;;;;;;;0.50;0.30;;;18.50;99.90;;;;;;5063120;28;20429;-76
2022/10/08 10:45:21;;;;;;;0.50;0.40;;;17.90;99.90;;;;;;5062682;28;20980;-79
2022/10/08 10:47:50;;;;;;;0.70;0.70;;;17.40;99.90;;;;;;5062765;28;20553;-79
2022/10/08 10:50:24;;;;;;;0.50;0.30;;;17.60;99.90;;;;;;5062640;28;20471;-79
2022/10/08 10:53:03;;;;;;;0.50;0.30;;;18.10;99.90;;;;;;5062915;28;20444;-79
2022/10/08 10:55:35;;;;;;;0.50;0.40;;;19.10;99.90;;;;;;5061653;28;20457;-78
2022/10/08 10:58:33;;;;;;;0.50;0.30;;;19.60;99.90;;;;;;5062757;28;20675;-78
2022/10/08 11:01:10;;;;;;;0.50;0.40;;;19.20;99.90;;;;;;5063800;28;20445;-79
2022/10/08 11:03:45;;;;;;;0.50;0.40;;;18.80;99.90;;;;;;5075735;28;20469;-78
2022/10/08 11:06:39;;;;;;;0.50;0.30;;;18.40;99.90;;;;;;5074469;28;20507;-79
2022/10/08 11:09:15;;;;;;;0.50;0.30;;;18.00;99.90;;;;;;5070030;28;20529;-77
2022/10/08 11:11:46;;;;;;;0.60;0.50;;;18.00;99.90;;;;;;5065228;28;20501;-77
2022/10/08 11:14:37;;;;;;;0.50;0.30;;;17.90;99.90;;;;;;5062533;28;20788;-77
2022/10/08 11:17:17;;;;;;;0.70;0.70;;;17.90;99.90;;;;;;5054792;28;20529;-78
2022/10/08 11:19:51;;;;;;;0.50;0.40;;;17.70;99.90;;;;;;5063890;28;20429;-79
2022/10/08 11:22:24;;;;;;;0.50;0.40;;;17.70;99.90;;;;;;5076119;28;20448;-80
2022/10/08 11:25:05;;;;;;;0.50;0.40;;;18.60;99.90;;;;;;5072413;28;20492;-78
2022/10/08 11:27:47;;;;;;;0.60;0.40;;;19.60;99.90;;;;;;5068388;28;20540;-78
2022/10/08 11:30:17;;;;;;;0.87;0.50;;;20.80;96.80;;;;;;5051558;28;20532;-78
2022/10/08 11:32:51;;;;;;;1.00;0.70;;;21.10;89.50;;;;;;5052023;28;20452;-77
2022/10/08 11:35:31;;;;;;;0.50;0.30;;;20.40;84.10;;;;;;5057445;28;20525;-79
2022/10/08 11:38:06;;;;;;;1.17;0.47;;;20.20;87.20;;;;;;5062404;28;20449;-79
2022/10/08 11:40:39;;;;;;;0.50;0.30;;;21.10;86.00;;;;;;5063393;28;20424;-79
2022/10/08 11:43:10;;;;;;;0.60;0.60;;;22.30;81.90;;;;;;5056038;28;20506;-78
2022/10/08 11:45:39;;;;;;;0.50;0.40;;;22.90;76.30;;;;;;5039040;28;20545;-79
2022/10/08 11:48:31;;;;;;;0.50;0.30;;;23.40;75.10;;;;;;5042524;28;20469;-79
2022/10/08 11:51:33;;;;;;;0.50;0.30;;;24.00;71.90;;;;;;5041367;28;20438;-79
2022/10/08 11:54:12;;;;;;;0.50;0.30;;;24.30;70.90;;;;;;5039940;28;20779;-77
2022/10/08 11:56:42;;;;;;;0.50;0.40;;;24.30;71.20;;;;;;5032927;28;20453;-76
2022/10/08 11:59:29;;;;;;;0.50;0.30;;;24.50;67.40;;;;;;5043403;28;20819;-77
2022/10/08 12:01:58;;;;;;;0.50;0.30;;;24.50;67.30;;;;;;5046606;28;20448;-76
2022/10/08 12:04:31;;;;;;;0.50;0.30;;;24.00;65.40;;;;;;4352902;28;10000813;-77
2022/10/08 12:07:21;;;;;;;0.50;0.30;;;24.10;68.90;;;;;;4344573;28;10000827;-77
2022/10/08 12:10:26;;;;;;;0.50;0.30;;;23.70;65.50;;;;;;5039802;28;20181;-77
2022/10/08 12:13:29;;;;;;;0.50;0.40;;;22.60;65.30;;;;;;5037961;28;20425;-77
2022/10/08 12:15:58;;;;;;;0.50;0.37;;;21.40;69.00;;;;;;5044248;28;20564;-78
2022/10/08 12:18:31;;;;;;;0.50;0.30;;;20.80;70.70;;;;;;4691027;28;9999621;-77
2022/10/08 12:21:35;;;;;;;0.50;0.30;;;20.50;71.20;;;;;;5030320;28;20442;-78
2022/10/08 12:24:43;;;;;;;0.50;0.30;;;20.60;71.10;;;;;;5028895;28;21014;-78
2022/10/08 12:27:28;;;;;;;0.50;0.30;;;21.20;69.30;;;;;;5033747;28;21005;-77
2022/10/08 12:29:58;;;;;;;0.50;0.30;;;21.90;69.20;;;;;;5049161;28;20433;-77
2022/10/08 12:32:26;;;;;;;0.50;0.30;;;22.80;68.70;;;;;;5049566;28;20437;-76
2022/10/08 12:34:54;;;;;;;0.50;0.30;;;23.20;64.80;;;;;;5048745;28;20467;-76
2022/10/08 12:37:42;;;;;;;0.50;0.30;;;23.50;66.50;;;;;;5049355;28;20436;-76
2022/10/08 12:40:20;;;;;;;7.00;0.70;;;24.00;65.40;;;;;;5050418;28;20451;-76
2022/10/08 12:42:48;;;;;;;0.50;0.30;;;24.50;63.00;;;;;;5050869;28;20799;-76
2022/10/08 12:45:22;;;;;;;0.60;0.40;;;24.50;63.90;;;;;;5049124;28;20548;-77
2022/10/08 12:47:59;;;;;;;0.50;0.30;;;24.70;61.10;;;;;;5031745;28;20515;-76
2022/10/08 12:50:37;;;;;;;0.50;0.40;;;23.90;64.30;;;;;;5032475;28;20430;-77
2022/10/08 12:53:06;;;;;;;0.50;0.40;;;22.80;65.00;;;;;;5031553;28;20418;-76
2022/10/08 12:55:41;;;;;;;0.50;0.30;;;21.80;68.10;;;;;;5031467;28;20472;-73
2022/10/08 12:58:15;;;;;;;0.50;0.40;;;21.10;67.90;;;;;;5030603;28;20536;-76
2022/10/08 13:00:43;;;;;;;0.50;0.40;;;20.20;72.50;;;;;;5031279;28;20912;-75
2022/10/08 13:03:15;;;;;;;0.50;0.30;;;20.20;74.90;;;;;;5031251;28;20449;-76
2022/10/08 13:05:43;;;;;;;0.70;0.57;;;20.30;73.60;;;;;;5030831;28;20494;-77